Time;durP1;ratioP1;P1;durP2;ratioP2;P2;SDS_P1;SDS_P2;PMS_P1;PMS_P2;Temp;Humidity;BMP_temperature;BMP_pressure;BME280_temperature;BME280_humidity;BME280_pressure;Samples;Min_cycle;Max_cycle;Signal;HPM_P1;HPM_P2
2023/01/27 00:00:08;;;;;;;13.38;5.63;;;;;;;-1.30;81.38;99765.06;5091232;28;20053;-51
2023/01/27 00:02:42;;;;;;;12.20;5.40;;;;;;;-1.32;81.28;99759.97;5073162;28;20044;-47
2023/01/27 00:05:08;;;;;;;;;;;;;;;-1.24;81.30;99772.81;5091944;28;20044;-49
2023/01/27 00:07:34;;;;;;;14.15;5.60;;;;;;;-1.34;81.14;99760.78;5091090;28;19916;-46
2023/01/27 00:10:00;;;;;;;8.02;4.22;;;;;;;-1.36;81.45;99768.38;5073543;28;20040;-53
2023/01/27 00:15:12;;;;;;;11.85;4.35;;;;;;;-1.42;81.43;99772.56;5091662;28;20032;-49
2023/01/27 00:17:39;;;;;;;8.65;4.22;;;;;;;-1.40;81.60;99758.13;5091346;28;20040;-48
2023/01/27 00:20:06;;;;;;;11.52;4.93;;;;;;;-1.56;81.74;99738.34;5085479;28;20048;-48
2023/01/27 00:25:17;;;;;;;7.18;3.30;;;;;;;-1.44;81.63;99764.03;5091477;28;20092;-47
2023/01/27 00:27:43;;;;;;;13.93;4.75;;;;;;;-1.43;81.47;99773.41;5090203;28;20051;-48
2023/01/27 00:30:10;;;;;;;6.80;3.28;;;;;;;-1.42;81.42;99768.31;5091341;28;20109;-49
2023/01/27 00:35:20;;;;;;;11.98;5.03;;;;;;;-1.46;81.75;99747.84;5090407;28;20044;-50
2023/01/27 00:37:46;;;;;;;9.82;4.68;;;;;;;-1.38;81.79;99754.78;5080300;28;20091;-48
2023/01/27 00:40:15;;;;;;;16.20;5.22;;;;;;;-1.40;81.89;99753.03;5069028;28;20114;-50
2023/01/27 00:42:41;;;;;;;11.80;5.70;;;;;;;-1.60;82.00;99714.50;5070839;28;20151;-49
2023/01/27 00:47:52;;;;;;;9.77;4.35;;;;;;;-1.43;82.55;99765.75;5051531;28;20067;-46
2023/01/27 00:50:19;;;;;;;12.00;4.28;;;;;;;-1.54;83.00;99752.84;5052189;28;20531;-52
2023/01/27 00:52:45;;;;;;;12.70;4.40;;;;;;;-1.53;83.25;99740.94;5068862;28;20365;-48
2023/01/27 00:55:11;;;;;;;9.93;5.03;;;;;;;-1.64;83.36;99740.78;5073236;28;20508;-48
2023/01/27 00:57:38;;;;;;;6.53;3.13;;;;;;;-1.60;83.62;99752.75;5070738;28;20105;-49
2023/01/27 01:00:05;;;;;;;9.88;4.18;;;;;;;-1.82;83.85;99713.31;5069359;28;20067;-47
2023/01/27 01:02:31;;;;;;;8.80;4.20;;;;;;;-1.65;84.03;99749.25;5069348;28;20131;-48
2023/01/27 01:04:57;;;;;;;14.60;6.22;;;;;;;-1.63;84.42;99752.69;5052192;28;20152;-46
2023/01/27 01:07:24;;;;;;;6.10;2.75;;;;;;;-1.58;84.69;99738.34;5078157;28;20036;-46
2023/01/27 01:09:49;;;;;;;13.38;4.85;;;;;;;-1.56;85.08;99736.66;5089456;28;20158;-46
2023/01/27 01:12:15;;;;;;;9.38;4.13;;;;;;;-1.56;85.36;99736.66;5069279;28;20574;-50
2023/01/27 01:14:41;;;;;;;6.45;3.40;;;;;;;-1.53;85.19;99735.84;5052172;28;20044;-49
2023/01/27 01:17:07;;;;;;;12.48;4.78;;;;;;;-1.56;85.42;99735.78;5068682;28;20508;-48
2023/01/27 01:19:33;;;;;;;10.52;5.45;;;;;;;-1.52;85.71;99727.38;5068978;28;20102;-48
2023/01/27 01:21:59;;;;;;;13.63;5.32;;;;;;;-1.71;85.24;99696.50;5068991;28;20573;-45
2023/01/27 01:24:25;;;;;;;7.57;3.72;;;;;;;-1.53;85.54;99736.72;5070176;28;20051;-47
2023/01/27 01:26:51;;;;;;;9.60;4.68;;;;;;;-1.57;85.29;99729.00;5069091;28;20036;-51
2023/01/27 01:29:17;;;;;;;7.63;3.80;;;;;;;-1.56;85.24;99735.78;5076596;28;20043;-47
2023/01/27 01:31:43;;;;;;;9.60;4.28;;;;;;;-1.65;85.08;99733.09;5089059;28;20482;-51
2023/01/27 01:34:09;;;;;;;9.43;3.75;;;;;;;-1.61;85.06;99733.19;5088930;28;20048;-52
2023/01/27 01:36:35;;;;;;;7.72;3.75;;;;;;;-1.62;84.85;99744.19;5090231;28;20066;-50
2023/01/27 01:39:04;;;;;;;5.65;3.08;;;;;;;-1.92;84.80;99716.56;5090039;28;20056;-49
2023/01/27 01:41:29;;;;;;;8.52;4.00;;;;;;;-1.76;85.20;99723.63;5090061;28;20047;-46
2023/01/27 01:43:55;;;;;;;9.38;4.20;;;;;;;-1.73;85.00;99728.75;5088722;28;20047;-47
2023/01/27 01:46:21;;;;;;;7.65;3.92;;;;;;;-1.95;85.10;99692.72;5089940;28;20043;-47
2023/01/27 01:48:54;;;;;;;7.82;3.03;;;;;;;-1.82;85.26;99745.59;5090036;28;20574;-51
2023/01/27 01:51:30;;;;;;;11.57;5.15;;;;;;;-1.81;85.74;99725.22;5088557;28;20504;-44
2023/01/27 01:54:00;;;;;;;6.03;2.85;;;;;;;-1.76;85.50;99722.75;5088630;28;20460;-48
2023/01/27 01:56:32;;;;;;;7.72;4.03;;;;;;;-1.76;85.26;99728.72;5088735;28;20051;-49
2023/01/27 01:59:03;;;;;;;6.50;2.80;;;;;;;-1.78;84.91;99730.38;5071650;28;20535;-47
2023/01/27 02:01:28;;;;;;;9.35;3.85;;;;;;;-1.83;84.96;99734.53;5071453;28;20129;-49
2023/01/27 02:03:58;;;;;;;10.55;2.08;;;;;;;-2.05;84.98;99680.69;5089612;28;20118;-47
2023/01/27 02:06:25;;;;;;;8.23;4.10;;;;;;;-1.82;84.99;99717.56;5071430;28;20036;-49
2023/01/27 02:08:51;;;;;;;5.40;2.65;;;;;;;-1.86;84.28;99736.19;5088121;28;20044;-47
2023/01/27 02:11:17;;;;;;;7.82;3.50;;;;;;;-1.92;84.69;99730.97;5088085;28;20577;-48
2023/01/27 02:13:44;;;;;;;4.85;2.53;;;;;;;-1.94;84.94;99725.03;5088187;28;20793;-49
2023/01/27 02:16:11;;;;;;;12.55;4.68;;;;;;;-1.88;84.93;99720.88;5088172;28;20035;-48
2023/01/27 02:18:39;;;;;;;8.20;3.38;;;;;;;-1.80;84.69;99714.22;5071315;28;20627;-47
2023/01/27 02:21:06;;;;;;;4.25;2.22;;;;;;;-1.77;84.27;99713.38;5087933;28;20112;-47
2023/01/27 02:23:43;;;;;;;7.40;3.53;;;;;;;-1.81;84.24;99715.03;5087886;28;20422;-53
2023/01/27 02:26:31;;;;;;;6.88;2.70;;;;;;;-1.83;83.88;99713.28;5071008;28;20048;-50
2023/01/27 02:29:12;;;;;;;7.00;3.25;;;;;;;-1.89;83.70;99697.94;5071142;28;20052;-47
2023/01/27 02:31:38;;;;;;;5.57;2.50;;;;;;;-1.81;83.42;99719.28;5087976;28;20048;-53
2023/01/27 02:34:16;;;;;;;6.85;3.13;;;;;;;-2.01;83.12;99679.91;5087887;28;20043;-50
2023/01/27 02:36:52;;;;;;;4.40;2.42;;;;;;;-1.87;82.99;99708.97;5048811;28;20040;-49
2023/01/27 02:39:21;;;;;;;3.33;1.83;;;;;;;-1.92;82.83;99714.00;5050742;28;20175;-45
2023/01/27 02:41:52;;;;;;;8.32;2.70;;;;;;;-1.90;82.81;99694.53;5067390;28;20044;-49
2023/01/27 02:44:19;;;;;;;5.15;2.42;;;;;;;-1.92;82.55;99701.28;5067341;28;20504;-49
2023/01/27 02:46:45;;;;;;;4.20;2.00;;;;;;;-1.90;82.45;99698.75;5068508;28;20043;-50
2023/01/27 02:49:12;;;;;;;5.25;2.53;;;;;;;-1.88;82.28;99699.63;5067508;28;20032;-53
2023/01/27 02:51:39;;;;;;;4.50;2.40;;;;;;;-2.09;82.48;99676.38;5067388;28;20098;-49
2023/01/27 02:54:06;;;;;;;7.80;3.00;;;;;;;-1.88;82.53;99699.63;5076116;28;20040;-48
2023/01/27 02:56:32;;;;;;;5.70;2.90;;;;;;;-1.89;82.39;99715.78;5087646;28;20507;-48
2023/01/27 02:58:58;;;;;;;5.68;2.60;;;;;;;-1.92;82.53;99701.28;5087479;28;20028;-48
2023/01/27 03:01:35;;;;;;;8.02;3.00;;;;;;;-1.98;82.34;99693.53;5087388;28;20040;-50
2023/01/27 03:04:01;;;;;;;4.90;2.50;;;;;;;-1.93;82.58;99704.66;5104495;28;20044;-48
2023/01/27 03:06:28;;;;;;;4.95;2.03;;;;;;;-2.02;82.73;99681.59;5068900;28;20040;-48
2023/01/27 03:08:53;;;;;;;2.75;1.55;;;;;;;-1.87;82.55;99712.41;5087356;28;20055;-48
2023/01/27 03:14:05;;;;;;;5.32;1.95;;;;;;;-2.05;82.46;99678.16;5088189;28;20082;-51
2023/01/27 03:19:16;;;;;;;4.13;2.55;;;;;;;-1.88;82.24;99705.56;5091605;28;20511;-48
2023/01/27 03:21:44;;;;;;;4.25;1.45;;;;;;;-1.86;82.83;99703.06;5092711;28;20043;-51
2023/01/27 03:24:11;;;;;;;4.10;2.28;;;;;;;-1.83;82.55;99706.50;5092711;28;20141;-48
2023/01/27 03:26:37;;;;;;;7.78;2.67;;;;;;;-1.79;82.73;99707.44;5091299;28;20047;-46
2023/01/27 03:31:50;;;;;;;6.28;3.00;;;;;;;-1.80;82.51;99711.66;5091159;28;20131;-48
2023/01/27 03:34:17;;;;;;;3.63;2.05;;;;;;;-1.87;82.33;99709.84;5091237;28;20419;-48
2023/01/27 03:47:45;;;;;;;2.80;1.50;;;;;;;-1.68;82.20;99700.81;5092196;28;20032;-46
2023/01/27 03:50:12;;;;;;;6.00;2.58;;;;;;;-1.69;82.21;99701.63;5092236;28;20465;-47
2023/01/27 03:52:39;;;;;;;7.07;2.58;;;;;;;-1.59;81.75;99726.41;5092197;28;20032;-47
2023/01/27 03:55:08;;;;;;;5.45;2.35;;;;;;;-1.83;81.65;99698.84;5090985;28;20526;-48
2023/01/27 03:57:36;;;;;;;1.98;1.38;;;;;;;-1.74;81.34;99714.31;5090861;28;20036;-47
2023/01/27 04:00:03;;;;;;;5.78;2.70;;;;;;;-1.78;81.64;99722.72;5090757;28;20093;-51
2023/01/27 04:08:07;;;;;;;3.47;1.98;;;;;;;-1.62;81.09;99728.91;5074948;28;20063;-50
2023/01/27 04:10:33;;;;;;;8.00;2.22;;;;;;;-1.61;81.30;99735.72;5071660;28;20098;-48
2023/01/27 04:12:59;;;;;;;6.65;2.45;;;;;;;-1.59;81.21;99723.88;5036997;28;20048;-52
2023/01/27 04:15:25;;;;;;;4.28;2.15;;;;;;;-1.56;80.97;99721.34;5071529;28;20496;-47
2023/01/27 04:17:51;;;;;;;5.38;3.05;;;;;;;-1.73;80.80;99695.63;5069996;28;20119;-48
2023/01/27 04:20:18;;;;;;;7.15;2.33;;;;;;;-1.45;80.70;99730.03;5070090;28;20639;-48
2023/01/27 04:22:43;;;;;;;5.47;2.40;;;;;;;-1.42;80.52;99729.22;5069416;28;20033;-50
2023/01/27 04:25:09;;;;;;;3.10;1.58;;;;;;;-1.47;80.10;99741.03;5070525;28;20105;-48
2023/01/27 04:27:35;;;;;;;9.35;2.90;;;;;;;-1.58;80.30;99730.69;5091023;28;20071;-46
2023/01/27 04:30:01;;;;;;;7.60;3.10;;;;;;;-1.51;80.63;99732.47;5091457;28;20044;-51
2023/01/27 04:32:29;;;;;;;5.07;2.78;;;;;;;-1.54;80.50;99734.13;5090619;28;20135;-49
2023/01/27 04:34:55;;;;;;;5.95;2.78;;;;;;;-1.65;80.42;99741.63;5089745;28;20134;-48
2023/01/27 04:37:21;;;;;;;9.90;3.60;;;;;;;-1.75;80.27;99727.88;5090406;28;20111;-49
2023/01/27 04:39:47;;;;;;;6.70;2.55;;;;;;;-1.68;80.43;99743.28;5088163;28;20055;-52
2023/01/27 04:42:13;;;;;;;6.85;3.15;;;;;;;-1.62;80.72;99736.56;5089085;28;20117;-48
2023/01/27 04:44:39;;;;;;;3.80;1.80;;;;;;;-1.57;80.60;99739.19;5090084;28;20071;-48
2023/01/27 04:47:05;;;;;;;3.42;2.03;;;;;;;-1.69;80.44;99733.91;5090604;28;20071;-47
2023/01/27 04:49:31;;;;;;;3.58;1.92;;;;;;;-1.77;80.35;99751.59;5090340;28;20044;-50
2023/01/27 04:51:56;;;;;;;2.35;1.63;;;;;;;-1.93;80.83;99734.34;5090462;28;20126;-49
2023/01/27 04:54:22;;;;;;;3.55;1.27;;;;;;;-2.08;81.05;99723.91;5090038;28;20109;-47
2023/01/27 04:56:59;;;;;;;5.53;2.75;;;;;;;-1.95;81.43;99754.72;5087388;28;20149;-48
2023/01/27 04:59:25;;;;;;;4.25;1.83;;;;;;;-1.90;81.63;99750.56;5090464;28;20123;-49
2023/01/27 05:01:51;;;;;;;6.18;2.65;;;;;;;-1.95;81.92;99754.72;5088822;28;20118;-50
2023/01/27 05:04:17;;;;;;;3.65;1.60;;;;;;;-1.99;82.37;99750.41;5088573;28;20059;-50
2023/01/27 05:06:43;;;;;;;2.63;1.30;;;;;;;-1.96;82.20;99737.72;5086459;28;20052;-51
2023/01/27 05:09:09;;;;;;;5.25;2.50;;;;;;;-1.93;82.79;99745.41;5087871;28;20048;-51
2023/01/27 05:11:34;;;;;;;6.32;2.65;;;;;;;-1.81;82.87;99742.22;5089573;28;20066;-53
2023/01/27 05:14:00;;;;;;;4.75;2.22;;;;;;;-1.79;82.90;99750.75;5088026;28;20596;-52
2023/01/27 05:16:26;;;;;;;6.32;2.80;;;;;;;-1.78;82.70;99743.09;5087615;28;20047;-55
2023/01/27 05:18:52;;;;;;;4.93;2.35;;;;;;;-1.90;82.38;99717.44;5088453;28;20047;-57
2023/01/27 05:21:23;;;;;;;6.35;2.75;;;;;;;-1.70;82.18;99761.06;5083499;28;20128;-49
2023/01/27 05:23:50;;;;;;;4.82;2.38;;;;;;;-1.79;81.73;99758.38;5088877;28;20044;-49
2023/01/27 05:26:18;;;;;;;4.28;2.20;;;;;;;-2.00;82.21;99725.78;5088065;28;20031;-46
2023/01/27 05:28:45;;;;;;;5.07;2.53;;;;;;;-1.73;82.48;99755.94;5088907;28;20051;-48
2023/01/27 05:31:19;;;;;;;5.60;2.75;;;;;;;-1.71;82.19;99761.91;5088591;28;20036;-53
2023/01/27 05:33:46;;;;;;;5.65;2.88;;;;;;;-1.77;82.39;99760.13;5089651;28;20341;-48
2023/01/27 05:36:15;;;;;;;7.22;2.80;;;;;;;-1.73;82.24;99778.88;5090000;28;20056;-49
2023/01/27 05:38:40;;;;;;;5.13;1.85;;;;;;;-1.82;82.23;99771.06;5071273;28;20158;-51
2023/01/27 05:41:08;;;;;;;5.55;3.10;;;;;;;-1.81;82.60;99763.44;5089883;28;20138;-52
2023/01/27 05:43:38;;;;;;;6.03;2.90;;;;;;;-1.69;82.69;99767.03;5089013;28;20063;-52
2023/01/27 05:46:24;;;;;;;3.53;2.10;;;;;;;-1.70;82.46;99781.47;5086786;28;20560;-51
2023/01/27 05:48:53;;;;;;;4.15;2.28;;;;;;;-1.78;82.36;99778.78;5088954;28;20071;-48
2023/01/27 05:51:20;;;;;;;4.13;2.10;;;;;;;-1.77;83.01;99787.28;5089122;28;20664;-48
2023/01/27 05:53:46;;;;;;;4.80;2.47;;;;;;;-1.91;83.09;99776.88;5088776;28;20035;-48
2023/01/27 05:56:14;;;;;;;9.20;3.53;;;;;;;-1.95;83.44;99784.44;5089015;28;20123;-51
2023/01/27 05:58:40;;;;;;;4.90;1.77;;;;;;;-1.90;84.16;99780.28;5089526;28;20044;-48
2023/01/27 06:01:15;;;;;;;5.65;2.88;;;;;;;-1.97;84.60;99776.75;5089606;28;20538;-48
2023/01/27 06:03:41;;;;;;;5.93;2.95;;;;;;;-1.93;84.64;99780.22;5089540;28;20043;-50
2023/01/27 06:06:08;;;;;;;8.02;3.08;;;;;;;-1.91;84.94;99773.47;5084636;28;20045;-50
2023/01/27 06:08:35;;;;;;;6.80;2.97;;;;;;;-1.86;85.01;99782.91;5103925;28;20050;-49
2023/01/27 06:11:01;;;;;;;5.90;3.15;;;;;;;-1.84;85.11;99781.25;5089043;28;20051;-49
2023/01/27 06:13:27;;;;;;;5.18;2.63;;;;;;;-2.08;84.43;99729.00;5071090;28;20040;-48
2023/01/27 06:15:56;;;;;;;7.03;2.80;;;;;;;-2.15;84.77;99728.06;5087680;28;20032;-49
2023/01/27 06:18:23;;;;;;;6.85;2.90;;;;;;;-1.78;84.55;99773.69;5088878;28;20031;-48
2023/01/27 06:20:49;;;;;;;5.68;2.45;;;;;;;-1.66;84.27;99782.34;5088886;28;20078;-48
2023/01/27 06:23:16;;;;;;;5.20;2.40;;;;;;;-1.71;84.06;99782.28;5087532;28;20127;-50
2023/01/27 06:25:45;;;;;;;6.22;2.58;;;;;;;-1.85;83.96;99755.75;5088721;28;20100;-49
2023/01/27 06:28:12;;;;;;;6.15;2.78;;;;;;;-1.63;83.88;99792.63;5088993;28;20046;-48
2023/01/27 06:30:39;;;;;;;6.20;2.80;;;;;;;-1.66;83.54;99787.47;5087617;28;20047;-47
2023/01/27 06:33:05;;;;;;;4.20;2.17;;;;;;;-1.69;83.68;99795.94;5070832;28;20047;-49
2023/01/27 06:35:32;;;;;;;8.45;2.63;;;;;;;-1.71;83.33;99779.75;5087744;28;20480;-50
2023/01/27 06:37:59;;;;;;;5.35;2.65;;;;;;;-1.74;83.33;99798.41;5071014;28;20245;-50
2023/01/27 06:40:26;;;;;;;6.45;2.13;;;;;;;-1.78;83.42;99788.13;5088296;28;20077;-52
2023/01/27 06:42:52;;;;;;;6.82;2.47;;;;;;;-1.89;83.52;99770.13;5088746;28;20130;-51
2023/01/27 06:45:18;;;;;;;7.32;3.50;;;;;;;-1.72;83.35;99789.06;5067119;28;20567;-50
2023/01/27 06:47:44;;;;;;;4.57;2.08;;;;;;;-1.58;83.49;99791.00;5068572;28;20772;-50
2023/01/27 06:50:10;;;;;;;3.78;1.90;;;;;;;-1.62;82.82;99790.06;5066621;28;20041;-54
2023/01/27 06:52:37;;;;;;;4.63;1.98;;;;;;;-1.59;82.81;99802.03;5067138;28;20036;-50
2023/01/27 06:55:03;;;;;;;5.63;2.78;;;;;;;-1.67;82.46;99806.16;5067144;28;20042;-47
2023/01/27 06:57:30;;;;;;;9.52;3.42;;;;;;;-1.69;82.50;99798.47;5067281;28;20143;-48
2023/01/27 06:59:55;;;;;;;8.73;3.60;;;;;;;-1.79;82.47;99758.38;5068602;28;20404;-49
2023/01/27 07:02:21;;;;;;;4.47;2.78;;;;;;;-1.82;82.21;99783.81;5083889;28;20037;-47
2023/01/27 07:04:47;;;;;;;6.15;3.10;;;;;;;-1.71;82.56;99798.44;5067085;28;20045;-49
2023/01/27 07:07:13;;;;;;;7.97;3.33;;;;;;;-1.71;82.34;99803.53;5080619;28;20036;-47
2023/01/27 07:09:39;;;;;;;6.95;3.05;;;;;;;-1.76;81.67;99784.78;5087869;28;20044;-47
2023/01/27 07:12:05;;;;;;;3.65;1.73;;;;;;;-1.61;81.76;99799.44;5087249;28;20032;-51
2023/01/27 07:14:31;;;;;;;6.35;3.05;;;;;;;-1.55;81.54;99801.22;5088490;28;20043;-49
2023/01/27 07:16:57;;;;;;;7.22;3.35;;;;;;;-1.43;81.49;99809.94;5086970;28;20642;-52
2023/01/27 07:19:23;;;;;;;3.90;1.95;;;;;;;-1.38;81.20;99807.47;5053366;28;20036;-52
2023/01/27 07:21:48;;;;;;;6.43;3.28;;;;;;;-1.38;80.84;99813.44;5086766;28;20036;-50
2023/01/27 07:24:14;;;;;;;10.15;3.50;;;;;;;-1.59;80.24;99781.63;5088341;28;20047;-49
2023/01/27 07:26:42;;;;;;;7.05;3.03;;;;;;;-1.38;80.30;99817.66;5088374;28;20040;-51
2023/01/27 07:29:08;;;;;;;7.20;2.80;;;;;;;-1.34;80.15;99814.31;5086875;28;20473;-50
2023/01/27 07:31:34;;;;;;;11.18;3.05;;;;;;;-1.37;79.55;99819.38;5088207;28;20122;-50
2023/01/27 07:34:00;;;;;;;6.03;3.03;;;;;;;-1.41;79.54;99812.50;5088211;28;20040;-51
2023/01/27 07:36:26;;;;;;;7.47;2.58;;;;;;;-1.32;79.45;99830.50;5088131;28;20422;-50
2023/01/27 07:38:52;;;;;;;8.43;4.07;;;;;;;-1.37;79.46;99814.28;5086724;28;20051;-48
2023/01/27 07:41:17;;;;;;;7.85;3.13;;;;;;;-1.30;78.88;99824.59;5088111;28;20521;-52
2023/01/27 07:43:43;;;;;;;5.68;2.58;;;;;;;-1.49;78.77;99797.09;5086966;28;20056;-52
2023/01/27 07:46:09;;;;;;;6.75;2.65;;;;;;;-1.26;78.75;99828.06;5086784;28;20567;-51
2023/01/27 07:48:35;;;;;;;9.35;3.65;;;;;;;-1.31;78.21;99801.63;5088422;28;20036;-51
2023/01/27 07:51:01;;;;;;;7.90;3.38;;;;;;;-1.07;78.37;99829.19;5088187;28;20040;-52
2023/01/27 07:53:27;;;;;;;4.90;2.10;;;;;;;-0.96;77.62;99831.06;5088148;28;20163;-52
2023/01/27 07:55:53;;;;;;;5.25;2.67;;;;;;;-1.09;77.59;99831.69;5088384;28;20028;-47
2023/01/27 07:58:19;;;;;;;5.65;2.10;;;;;;;-1.07;77.51;99835.13;5088096;28;20426;-48
2023/01/27 08:00:45;;;;;;;6.10;3.00;;;;;;;-1.36;77.13;99798.97;5090277;28;20116;-49
2023/01/27 08:03:22;;;;;;;5.50;2.80;;;;;;;-1.10;77.18;99845.28;5091853;28;20407;-48
2023/01/27 08:05:48;;;;;;;7.13;2.80;;;;;;;-1.20;76.92;99840.88;5091065;28;20040;-54
2023/01/27 08:08:14;;;;;;;7.13;2.80;;;;;;;-1.13;77.07;99829.94;5090764;28;20131;-49
2023/01/27 08:10:45;;;;;;;6.15;3.03;;;;;;;-1.03;76.80;99830.94;5090408;28;20040;-51
2023/01/27 08:13:12;;;;;;;5.72;2.90;;;;;;;-1.02;76.48;99836.06;5091634;28;20156;-51
2023/01/27 08:15:38;;;;;;;4.85;2.50;;;;;;;-0.93;76.28;99837.88;5091527;28;20482;-50
2023/01/27 08:18:04;;;;;;;6.47;3.05;;;;;;;-0.98;76.15;99840.38;5091163;28;20063;-50
2023/01/27 08:20:31;;;;;;;4.97;2.95;;;;;;;-0.99;76.09;99845.44;5090004;28;20063;-51
2023/01/27 08:22:57;;;;;;;4.47;2.50;;;;;;;-1.03;75.97;99846.25;5091348;28;20044;-48
2023/01/27 08:25:23;;;;;;;6.13;2.75;;;;;;;-0.99;76.18;99845.44;5091144;28;20460;-51
2023/01/27 08:27:54;;;;;;;4.63;2.35;;;;;;;-0.95;75.95;99830.22;5089831;28;20067;-50
2023/01/27 08:30:20;;;;;;;7.43;3.22;;;;;;;-0.94;75.57;99836.16;5089719;28;20542;-50
2023/01/27 08:32:46;;;;;;;7.95;3.55;;;;;;;-0.88;75.67;99844.75;5089993;28;20122;-52
2023/01/27 08:35:12;;;;;;;7.30;3.13;;;;;;;-0.70;75.32;99835.66;5091169;28;20035;-50
2023/01/27 08:37:38;;;;;;;6.55;3.10;;;;;;;-0.68;74.84;99839.09;5090029;28;20416;-51
2023/01/27 08:40:05;;;;;;;7.20;3.08;;;;;;;-0.56;75.02;99839.22;5091125;28;20059;-49
2023/01/27 08:42:31;;;;;;;4.20;2.10;;;;;;;-0.49;74.75;99831.66;5091252;28;20048;-50
2023/01/27 08:44:59;;;;;;;6.72;2.70;;;;;;;-0.58;74.43;99810.28;5090887;28;20036;-51
2023/01/27 08:47:25;;;;;;;4.97;2.90;;;;;;;-0.50;74.05;99803.56;5091052;28;20039;-49
2023/01/27 08:49:53;;;;;;;5.07;3.15;;;;;;;-0.49;73.94;99820.59;5090970;28;20043;-49
2023/01/27 08:52:18;;;;;;;6.72;2.63;;;;;;;-0.34;73.53;99832.69;5072985;28;20410;-50
2023/01/27 08:54:44;;;;;;;7.60;3.60;;;;;;;-0.62;73.52;99803.41;5090969;28;20035;-48
2023/01/27 08:57:10;;;;;;;6.50;2.95;;;;;;;-0.59;73.74;99811.13;5101493;28;20488;-50
2023/01/27 08:59:36;;;;;;;6.57;2.50;;;;;;;-0.49;73.43;99847.00;5070931;28;20049;-53
2023/01/27 09:02:02;;;;;;;4.88;2.58;;;;;;;-0.49;73.19;99833.38;5070387;28;20059;-48
2023/01/27 09:04:29;;;;;;;7.88;3.20;;;;;;;-0.47;73.35;99835.09;5068903;28;20127;-50
2023/01/27 09:06:55;;;;;;;4.75;2.25;;;;;;;-0.40;73.07;99835.16;5070754;28;20127;-49
2023/01/27 09:09:22;;;;;;;3.80;1.88;;;;;;;-0.57;73.10;99815.38;5070428;28;20094;-50
2023/01/27 09:11:47;;;;;;;6.20;2.78;;;;;;;-0.36;73.29;99834.34;5069401;28;20193;-50
2023/01/27 09:14:13;;;;;;;4.20;2.33;;;;;;;-0.39;72.99;99836.88;5052125;28;20043;-51
2023/01/27 09:16:39;;;;;;;9.63;3.05;;;;;;;-0.42;73.09;99843.66;5070076;28;20541;-50
2023/01/27 09:19:05;;;;;;;7.15;3.50;;;;;;;-0.49;73.03;99834.22;5068658;28;20515;-54
2023/01/27 09:21:31;;;;;;;6.47;3.45;;;;;;;-0.33;73.16;99829.28;5069684;28;20051;-52
2023/01/27 09:23:57;;;;;;;6.05;2.78;;;;;;;-0.18;72.86;99839.69;5067983;28;20075;-47
2023/01/27 09:26:23;;;;;;;9.90;3.95;;;;;;;-0.11;72.53;99841.47;5068155;28;20040;-51
2023/01/27 09:28:49;;;;;;;9.90;3.60;;;;;;;-0.01;72.25;99838.19;5069691;28;20050;-49
2023/01/27 09:31:15;;;;;;;6.85;3.15;;;;;;;0.05;71.96;99815.25;5069500;28;20392;-50
2023/01/27 09:33:41;;;;;;;4.22;2.38;;;;;;;0.29;71.45;99833.34;5069639;28;20044;-48
2023/01/27 09:36:19;;;;;;;3.13;1.98;;;;;;;0.15;71.34;99844.31;5068218;28;20119;-46
2023/01/27 09:38:54;;;;;;;7.65;2.88;;;;;;;-0.08;71.64;99844.06;5068209;28;20086;-48
2023/01/27 09:42:07;;;;;;;6.03;3.17;;;;;;;-0.09;71.66;99843.19;5068436;28;20055;-51
2023/01/27 09:44:45;;;;;;;6.70;3.30;;;;;;;-0.08;72.04;99844.06;5045117;28;20423;-51
2023/01/27 09:47:22;;;;;;;10.15;3.40;;;;;;;0.05;71.26;99847.59;5089533;28;20044;-46
2023/01/27 09:50:21;;;;;;;10.38;3.83;;;;;;;0.05;71.23;99845.06;5087823;28;20072;-51
2023/01/27 09:53:05;;;;;;;7.30;3.30;;;;;;;0.10;71.04;99851.94;5088964;28;20051;-51
2023/01/27 09:55:46;;;;;;;5.20;2.80;;;;;;;0.12;71.46;99854.47;5088295;28;20114;-49
2023/01/27 09:58:18;;;;;;;7.13;3.55;;;;;;;-0.09;71.28;99845.75;5088107;28;20040;-48
2023/01/27 10:00:45;;;;;;;6.15;2.90;;;;;;;-0.12;71.74;99843.19;5089467;28;20036;-47
2023/01/27 10:03:11;;;;;;;6.45;3.53;;;;;;;-0.17;71.70;99838.84;5089426;28;20063;-51
2023/01/27 10:05:56;;;;;;;6.93;3.25;;;;;;;-0.13;71.51;99835.47;5088855;28;20040;-51
2023/01/27 10:08:43;;;;;;;6.13;3.40;;;;;;;-0.15;71.67;99832.03;5089855;28;20587;-48
2023/01/27 10:11:18;;;;;;;6.78;3.53;;;;;;;-0.20;71.67;99839.66;5089614;28;20093;-49
2023/01/27 10:13:44;;;;;;;7.10;2.70;;;;;;;-0.20;71.73;99832.00;5087978;28;20082;-52
2023/01/27 10:16:16;;;;;;;11.98;3.50;;;;;;;-0.12;72.27;99834.66;5089481;28;20067;-48
2023/01/27 10:19:11;;;;;;;6.65;3.70;;;;;;;-0.03;71.91;99832.19;5089552;28;20070;-51
2023/01/27 10:21:58;;;;;;;7.18;3.70;;;;;;;-0.17;71.62;99800.53;5089275;28;20070;-51
2023/01/27 10:24:36;;;;;;;7.85;3.47;;;;;;;-0.15;71.95;99830.34;5089274;28;20039;-50
2023/01/27 10:27:22;;;;;;;7.65;4.00;;;;;;;-0.09;72.28;99838.09;5087457;28;20464;-51
2023/01/27 10:29:58;;;;;;;6.43;3.28;;;;;;;-0.13;71.75;99838.91;5087722;28;20476;-53
2023/01/27 10:32:37;;;;;;;7.07;3.17;;;;;;;-0.12;72.01;99838.06;5089038;28;20044;-49
2023/01/27 10:35:11;;;;;;;6.95;3.92;;;;;;;-0.32;72.08;99801.22;5088866;28;20101;-50
2023/01/27 10:38:04;;;;;;;6.40;3.80;;;;;;;0.16;71.94;99841.75;5086824;28;20412;-51
2023/01/27 10:40:38;;;;;;;7.22;3.90;;;;;;;0.21;71.39;99841.81;5088517;28;20048;-51
2023/01/27 10:43:25;;;;;;;7.35;3.10;;;;;;;0.31;71.71;99836.81;5087587;28;20135;-51
2023/01/27 10:46:07;;;;;;;7.93;2.92;;;;;;;0.31;71.18;99836.81;5086669;28;20046;-51
2023/01/27 10:48:42;;;;;;;9.63;4.47;;;;;;;0.38;71.00;99843.66;5087581;28;20044;-50
2023/01/27 10:51:18;;;;;;;4.43;2.85;;;;;;;0.31;71.20;99838.50;5070961;28;20040;-50
2023/01/27 10:53:56;;;;;;;6.90;3.78;;;;;;;0.30;71.22;99842.75;5088793;28;20101;-49
2023/01/27 10:56:37;;;;;;;6.68;3.20;;;;;;;0.37;71.28;99857.28;5088930;28;20035;-49
2023/01/27 10:59:25;;;;;;;9.02;4.28;;;;;;;0.48;71.76;99852.25;5087522;28;20075;-53
2023/01/27 11:02:35;;;;;;;5.32;3.05;;;;;;;0.44;71.36;99850.53;5087547;28;20036;-54
2023/01/27 11:05:06;;;;;;;6.50;3.33;;;;;;;0.37;70.81;99853.88;5070309;28;20542;-49
2023/01/27 11:07:37;;;;;;;9.02;4.28;;;;;;;0.27;71.13;99846.97;5086903;28;20040;-51
2023/01/27 11:10:07;;;;;;;7.28;3.95;;;;;;;0.36;70.87;99847.91;5087090;28;20036;-51
2023/01/27 11:12:35;;;;;;;9.85;4.25;;;;;;;0.38;71.19;99856.44;5088509;28;20044;-52
2023/01/27 11:15:19;;;;;;;8.98;4.00;;;;;;;0.24;71.35;99829.91;5087050;28;20040;-51
2023/01/27 11:17:56;;;;;;;7.30;3.85;;;;;;;0.48;71.09;99857.38;5053165;28;20047;-49
2023/01/27 11:20:35;;;;;;;6.57;2.97;;;;;;;0.24;71.36;99854.59;5088372;28;20131;-52
2023/01/27 11:23:23;;;;;;;9.60;4.33;;;;;;;0.31;72.03;99852.13;5088234;28;20092;-51
2023/01/27 11:25:58;;;;;;;8.10;3.90;;;;;;;0.45;71.39;99854.81;5070041;28;20044;-49
2023/01/27 11:29:14;;;;;;;7.60;3.88;;;;;;;0.53;71.42;99849.75;5087965;28;20040;-49
2023/01/27 11:31:56;;;;;;;8.63;4.13;;;;;;;0.50;71.42;99847.16;5008687;28;20049;-52
2023/01/27 11:34:40;;;;;;;7.68;4.10;;;;;;;0.57;71.35;99857.47;5061997;28;20138;-51
2023/01/27 11:37:23;;;;;;;7.53;3.90;;;;;;;0.52;71.27;99848.06;5092246;28;20486;-49
2023/01/27 11:39:50;;;;;;;7.60;3.85;;;;;;;0.48;70.99;99859.06;5074452;28;20485;-48
2023/01/27 11:42:16;;;;;;;9.25;4.43;;;;;;;0.39;71.38;99859.88;5073921;28;20123;-50
2023/01/27 11:44:43;;;;;;;7.63;4.10;;;;;;;0.51;71.22;99854.00;5073754;28;20040;-53
2023/01/27 11:47:45;;;;;;;9.77;4.82;;;;;;;0.62;71.18;99860.94;5090634;28;20210;-50
2023/01/27 11:50:15;;;;;;;10.35;4.45;;;;;;;0.57;71.08;99849.81;5078688;28;20039;-48
2023/01/27 11:52:44;;;;;;;10.00;4.65;;;;;;;0.50;71.31;99857.41;5091929;28;20036;-48
2023/01/27 11:55:13;;;;;;;6.80;3.17;;;;;;;0.45;71.63;99859.94;5090291;28;20036;-53
2023/01/27 11:57:41;;;;;;;7.28;3.67;;;;;;;0.40;71.51;99862.44;5090386;28;20414;-53
2023/01/27 12:00:22;;;;;;;9.85;4.88;;;;;;;0.48;71.59;99867.59;5090590;28;20127;-49
2023/01/27 12:02:54;;;;;;;8.80;4.10;;;;;;;0.38;71.38;99869.22;5073414;28;20048;-49
2023/01/27 12:05:41;;;;;;;7.72;4.18;;;;;;;0.35;71.78;99870.91;5091591;28;20131;-47
2023/01/27 12:08:07;;;;;;;9.40;4.70;;;;;;;0.04;71.84;99818.63;5073525;28;20074;-51
2023/01/27 12:10:39;;;;;;;7.18;4.15;;;;;;;0.44;71.99;99865.88;5090392;28;20063;-46
2023/01/27 12:13:15;;;;;;;10.23;4.57;;;;;;;0.51;71.53;99862.53;5090019;28;20341;-50
2023/01/27 12:15:54;;;;;;;8.65;4.65;;;;;;;0.65;71.77;99867.75;5090122;28;20097;-50
2023/01/27 12:18:22;;;;;;;9.20;4.28;;;;;;;0.59;71.38;99870.25;5090109;28;20136;-52
2023/01/27 12:20:57;;;;;;;9.18;4.32;;;;;;;0.52;71.34;99859.16;5073473;28;20044;-51